createdAt,value
2018-06-08T00:02:23.841Z,21.25
2018-06-08T00:07:28.025Z,21.20
2018-06-08T00:12:31.989Z,19.83
2018-06-08T00:17:36.807Z,20.92
2018-06-08T00:22:41.890Z,20.43
2018-06-08T00:27:47.236Z,19.02
2018-06-08T00:32:50.712Z,21.52
2018-06-08T00:37:54.254Z,20.00
2018-06-08T00:42:57.652Z,21.35
2018-06-08T00:48:01.112Z,22.40
2018-06-08T00:53:08.784Z,23.77
2018-06-08T00:58:12.282Z,23.40
2018-06-08T01:03:18.346Z,23.20
2018-06-08T01:08:21.788Z,20.37
2018-06-08T01:13:25.296Z,21.35
2018-06-08T01:18:29.887Z,20.92
2018-06-08T01:23:34.507Z,23.50
2018-06-08T01:28:38.049Z,22.62
2018-06-08T01:33:44.960Z,22.17
2018-06-08T01:38:48.439Z,20.62
2018-06-08T01:43:51.767Z,26.63
2018-06-08T01:48:55.238Z,22.80
2018-06-08T01:54:01.975Z,23.10
2018-06-08T01:59:09.026Z,24.45
2018-06-08T02:04:12.377Z,23.35
2018-06-08T02:09:15.786Z,21.70
2018-06-08T02:14:19.139Z,20.47
2018-06-08T02:19:22.930Z,20.95
2018-06-08T02:24:27.335Z,20.60
2018-06-08T02:29:30.732Z,22.50
2018-06-08T02:34:34.166Z,25.12
2018-06-08T02:39:37.603Z,24.43
2018-06-08T02:44:41.117Z,25.27
2018-06-08T02:49:44.430Z,23.30
2018-06-08T02:54:48.985Z,26.05
2018-06-08T02:59:52.490Z,24.40
2018-06-08T03:04:56.834Z,22.58
2018-06-08T03:10:00.155Z,24.75
2018-06-08T03:15:03.674Z,24.92
2018-06-08T03:20:07.174Z,26.50
2018-06-08T03:25:10.690Z,26.55
2018-06-08T03:30:14.137Z,27.30
2018-06-08T03:35:17.611Z,27.02
2018-06-08T03:40:20.987Z,28.10
2018-06-08T03:45:25.376Z,32.88
2018-06-08T03:50:28.856Z,27.60
2018-06-08T03:55:32.395Z,30.87
2018-06-08T04:00:35.755Z,27.80
2018-06-08T04:05:39.172Z,33.00
2018-06-08T04:10:42.629Z,27.60
2018-06-08T04:15:46.054Z,28.32
2018-06-08T04:20:49.355Z,28.50
2018-06-08T04:25:56.248Z,27.40
2018-06-08T04:30:59.597Z,25.57
2018-06-08T04:36:06.094Z,24.23
2018-06-08T04:41:09.491Z,25.77
2018-06-08T04:46:12.887Z,23.70
2018-06-08T04:51:16.354Z,21.93
2018-06-08T04:56:21.098Z,23.73
2018-06-08T05:01:24.596Z,23.15
2018-06-08T05:06:28.441Z,23.65
2018-06-08T05:11:31.879Z,24.45
2018-06-08T05:16:35.230Z,22.05
2018-06-08T05:21:38.853Z,21.10
2018-06-08T05:26:42.267Z,20.67
2018-06-08T05:31:45.671Z,21.48
2018-06-08T05:36:51.249Z,19.00
2018-06-08T05:41:54.608Z,19.80
2018-06-08T05:46:58.085Z,22.00
2018-06-08T05:52:01.438Z,22.22
2018-06-08T05:57:05.051Z,23.00
2018-06-08T06:02:09.587Z,25.37
2018-06-08T06:07:13.453Z,25.50
2018-06-08T06:12:16.762Z,24.65
2018-06-08T06:17:20.071Z,29.35
2018-06-08T06:22:23.431Z,26.70
2018-06-08T06:27:26.915Z,25.97
2018-06-08T06:32:30.290Z,28.43
2018-06-08T06:37:33.688Z,23.90
2018-06-08T06:42:37.063Z,23.95
2018-06-08T06:47:40.433Z,26.00
2018-06-08T06:52:43.946Z,25.92
2018-06-08T06:57:47.385Z,27.87
2018-06-08T07:02:50.682Z,25.63
2018-06-08T07:07:53.996Z,29.00
2018-06-08T07:12:57.334Z,25.60
2018-06-08T07:18:00.670Z,25.43
2018-06-08T07:23:04.017Z,25.12
2018-06-08T07:28:07.373Z,24.27
2018-06-08T07:33:10.698Z,23.85
2018-06-08T07:38:14.069Z,23.38
2018-06-08T07:43:17.494Z,25.62
2018-06-08T07:48:20.862Z,22.02
2018-06-08T07:53:24.236Z,20.52
2018-06-08T07:58:27.612Z,19.23
2018-06-08T08:03:30.963Z,21.87
2018-06-08T08:08:34.358Z,21.20
2018-06-08T08:13:37.740Z,19.17
2018-06-08T08:18:41.671Z,18.07
2018-06-08T08:23:45.028Z,18.20
2018-06-08T08:28:48.457Z,16.80
2018-06-08T08:33:51.856Z,16.40
2018-06-08T08:38:55.227Z,15.50
2018-06-08T08:43:58.548Z,14.38
2018-06-08T08:49:01.903Z,14.00
2018-06-08T08:54:05.272Z,14.10
2018-06-08T08:59:08.629Z,14.00
2018-06-08T09:04:12.086Z,13.40
2018-06-08T09:09:15.400Z,16.02
2018-06-08T09:14:18.765Z,14.20
2018-06-08T09:19:22.155Z,13.18
2018-06-08T09:24:25.459Z,12.00
2018-06-08T09:29:29.505Z,11.78
2018-06-08T09:34:32.815Z,11.95
2018-06-08T09:39:36.140Z,11.10
2018-06-08T09:44:39.547Z,11.03
2018-06-08T09:49:43.952Z,10.20
2018-06-08T09:54:47.266Z,12.13
2018-06-08T09:59:50.916Z,11.60
2018-06-08T10:04:54.254Z,11.03
2018-06-08T10:09:57.647Z,10.30
2018-06-08T10:15:01.002Z,10.13
2018-06-08T10:20:04.402Z,10.23
2018-06-08T10:25:07.747Z,10.60
2018-06-08T10:30:11.082Z,10.55
2018-06-08T10:35:14.463Z,12.25
2018-06-08T10:40:17.821Z,9.75
2018-06-08T10:45:21.227Z,11.90
2018-06-08T10:50:24.658Z,11.25
2018-06-08T10:55:28.059Z,11.90
2018-06-08T11:00:31.453Z,11.28
2018-06-08T11:05:34.954Z,11.22
2018-06-08T11:10:38.427Z,11.70
2018-06-08T11:15:41.853Z,10.93
2018-06-08T11:20:45.198Z,11.10
2018-06-08T11:25:48.678Z,11.18
2018-06-08T11:30:52.082Z,9.53
2018-06-08T11:35:55.677Z,8.43
2018-06-08T11:40:59.167Z,8.77
2018-06-08T11:46:02.621Z,9.08
2018-06-08T11:51:07.052Z,8.50
2018-06-08T11:56:10.425Z,8.95
2018-06-08T12:01:13.811Z,9.33
2018-06-08T12:06:18.049Z,8.90
2018-06-08T12:11:21.812Z,8.55
2018-06-08T12:16:25.214Z,9.23
2018-06-08T12:21:29.397Z,7.77
2018-06-08T12:26:32.758Z,8.35
2018-06-08T12:31:36.113Z,8.50
2018-06-08T12:36:39.510Z,7.80
2018-06-08T12:41:42.869Z,8.00
2018-06-08T12:46:46.283Z,8.90
2018-06-08T12:51:49.810Z,8.40
2018-06-08T12:56:53.300Z,9.70
2018-06-08T13:01:56.636Z,9.48
2018-06-08T13:07:00.013Z,8.70
2018-06-08T13:12:03.338Z,9.55
2018-06-08T13:17:06.749Z,9.20
2018-06-08T13:22:11.922Z,8.70
2018-06-08T13:27:16.646Z,9.33
2018-06-08T13:32:20.348Z,9.53
2018-06-08T13:37:23.919Z,10.18
2018-06-08T13:42:26.983Z,10.65
2018-06-08T13:47:30.366Z,10.20
2018-06-08T13:52:34.040Z,9.25
2018-06-08T13:57:37.526Z,9.80
2018-06-08T14:02:40.934Z,9.90
2018-06-08T14:07:44.275Z,10.10
2018-06-08T14:12:47.673Z,9.93
2018-06-08T14:17:52.237Z,9.58
2018-06-08T14:22:55.711Z,6.60
2018-06-08T14:27:59.327Z,5.62
2018-06-08T14:33:02.724Z,6.60
2018-06-08T14:38:06.092Z,6.10
2018-06-08T14:43:10.294Z,6.17
2018-06-08T14:48:13.679Z,5.70
2018-06-08T14:53:17.060Z,5.47
2018-06-08T14:58:20.792Z,6.20
2018-06-08T15:03:24.174Z,5.13
2018-06-08T15:08:27.635Z,5.80
2018-06-08T15:13:30.948Z,5.67
2018-06-08T15:18:34.364Z,5.62
2018-06-08T15:23:37.739Z,5.43
2018-06-08T15:28:41.150Z,5.65
2018-06-08T15:33:45.758Z,5.30
2018-06-08T15:38:49.182Z,5.93
2018-06-08T15:43:52.584Z,6.28
2018-06-08T15:48:55.938Z,7.80
2018-06-08T15:53:59.297Z,7.40
2018-06-08T15:59:02.712Z,6.83
2018-06-08T16:04:06.259Z,6.20
2018-06-08T16:09:10.059Z,6.25
2018-06-08T16:14:13.443Z,6.23
2018-06-08T16:19:16.801Z,6.50
2018-06-08T16:24:20.203Z,6.00
2018-06-08T16:29:23.886Z,6.47
2018-06-08T16:34:27.800Z,5.95
2018-06-08T16:39:36.772Z,6.80
2018-06-08T16:44:40.235Z,6.47
2018-06-08T16:49:43.614Z,6.45
2018-06-08T16:54:47.035Z,7.10
2018-06-08T16:59:50.499Z,7.08
2018-06-08T17:04:53.908Z,8.07
2018-06-08T17:09:57.287Z,7.40
2018-06-08T17:15:00.792Z,7.50
2018-06-08T17:20:04.255Z,7.45
2018-06-08T17:25:07.633Z,7.60
2018-06-08T17:30:11.092Z,7.60
2018-06-08T17:35:14.505Z,7.77
2018-06-08T17:40:18.016Z,7.50
2018-06-08T17:45:21.506Z,8.10
2018-06-08T17:50:24.913Z,8.25
2018-06-08T17:55:28.418Z,8.20
2018-06-08T18:00:31.813Z,8.28
2018-06-08T18:05:35.280Z,8.10
2018-06-08T18:10:38.796Z,7.50
2018-06-08T18:15:42.247Z,7.47
2018-06-08T18:20:47.797Z,6.40
2018-06-08T18:25:51.233Z,7.37
2018-06-08T18:30:54.597Z,7.40
2018-06-08T18:35:57.992Z,7.33
2018-06-08T18:41:01.416Z,7.42
2018-06-08T18:46:04.890Z,7.85
2018-06-08T18:51:08.498Z,7.75
2018-06-08T18:56:11.990Z,7.80
2018-06-08T19:01:15.504Z,7.40
2018-06-08T19:06:18.983Z,7.17
2018-06-08T19:11:23.695Z,8.33
2018-06-08T19:16:27.767Z,7.55
2018-06-08T19:21:31.321Z,8.80
2018-06-08T19:26:34.925Z,8.83
2018-06-08T19:31:38.898Z,8.47
2018-06-08T19:36:42.369Z,7.80
2018-06-08T19:41:45.853Z,8.20
2018-06-08T19:46:49.334Z,7.90
2018-06-08T19:51:52.798Z,9.05
2018-06-08T19:56:56.234Z,8.40
2018-06-08T20:01:59.724Z,8.70
2018-06-08T20:07:03.133Z,8.80
2018-06-08T20:12:06.503Z,7.92
2018-06-08T20:17:10.060Z,8.68
2018-06-08T20:22:14.362Z,9.15
2018-06-08T20:27:18.066Z,9.80
2018-06-08T20:32:21.669Z,9.75
2018-06-08T20:37:25.114Z,9.50
2018-06-08T20:42:28.786Z,9.13
2018-06-08T20:47:33.307Z,9.55
2018-06-08T20:52:36.842Z,9.73
2018-06-08T20:57:50.363Z,9.23
2018-06-08T21:02:53.773Z,8.85
2018-06-08T21:07:57.216Z,9.50
2018-06-08T21:13:00.743Z,9.53
2018-06-08T21:18:04.153Z,10.70
2018-06-08T21:23:07.476Z,10.67
2018-06-08T21:28:10.891Z,10.80
2018-06-08T21:33:14.379Z,10.50
2018-06-08T21:38:17.806Z,11.28
2018-06-08T21:43:21.260Z,11.30
2018-06-08T21:48:24.691Z,12.20
2018-06-08T21:53:28.084Z,13.70
2018-06-08T21:58:31.483Z,12.80
2018-06-08T22:03:34.896Z,12.28
2018-06-08T22:08:38.709Z,15.20
2018-06-08T22:13:43.431Z,13.50
2018-06-08T22:18:46.871Z,14.30
2018-06-08T22:23:50.373Z,13.95
2018-06-08T22:28:53.731Z,14.98
2018-06-08T22:33:57.201Z,13.37
2018-06-08T22:39:00.672Z,14.05
2018-06-08T22:44:04.428Z,14.13
2018-06-08T22:49:07.871Z,13.50
2018-06-08T22:54:11.293Z,13.73
2018-06-08T22:59:14.688Z,14.63
2018-06-08T23:04:18.185Z,14.63
2018-06-08T23:09:21.640Z,16.80
2018-06-08T23:14:25.117Z,14.30
2018-06-08T23:19:28.502Z,15.30
2018-06-08T23:24:31.851Z,15.90
2018-06-08T23:29:35.718Z,15.75
2018-06-08T23:34:39.115Z,16.48
2018-06-08T23:39:42.584Z,16.77
2018-06-08T23:44:46.019Z,19.12
2018-06-08T23:49:49.472Z,19.62
2018-06-08T23:54:52.999Z,19.97
2018-06-08T23:59:56.422Z,19.42
